sensor_id;sensor_type;location;lat;lon;timestamp;P1;durP1;ratioP1;P2;durP2;ratioP2
17794;SDS011;9021;50.882;4.326;2023-04-25T00:02:18;16.05;;;4.03;;
17794;SDS011;9021;50.882;4.326;2023-04-25T00:04:44;14.45;;;3.58;;
17794;SDS011;9021;50.882;4.326;2023-04-25T00:07:10;13.93;;;3.50;;
17794;SDS011;9021;50.882;4.326;2023-04-25T00:09:36;14.73;;;3.65;;
17794;SDS011;9021;50.882;4.326;2023-04-25T00:12:02;15.25;;;3.70;;
17794;SDS011;9021;50.882;4.326;2023-04-25T00:14:29;15.40;;;3.92;;
17794;SDS011;9021;50.882;4.326;2023-04-25T00:16:55;12.52;;;3.70;;
17794;SDS011;9021;50.882;4.326;2023-04-25T00:19:21;11.50;;;3.70;;
17794;SDS011;9021;50.882;4.326;2023-04-25T00:21:46;9.57;;;3.63;;
17794;SDS011;9021;50.882;4.326;2023-04-25T00:24:12;12.93;;;4.22;;
17794;SDS011;9021;50.882;4.326;2023-04-25T00:26:38;13.45;;;3.88;;
17794;SDS011;9021;50.882;4.326;2023-04-25T00:29:04;12.18;;;3.40;;
17794;SDS011;9021;50.882;4.326;2023-04-25T00:31:30;13.30;;;3.55;;
17794;SDS011;9021;50.882;4.326;2023-04-25T00:33:55;12.98;;;3.00;;
17794;SDS011;9021;50.882;4.326;2023-04-25T00:36:21;8.63;;;2.92;;
17794;SDS011;9021;50.882;4.326;2023-04-25T00:38:47;16.73;;;4.18;;
17794;SDS011;9021;50.882;4.326;2023-04-25T00:41:13;14.15;;;2.97;;
17794;SDS011;9021;50.882;4.326;2023-04-25T00:43:38;13.18;;;3.67;;
17794;SDS011;9021;50.882;4.326;2023-04-25T00:46:05;16.90;;;3.92;;
17794;SDS011;9021;50.882;4.326;2023-04-25T00:48:31;14.90;;;4.13;;
17794;SDS011;9021;50.882;4.326;2023-04-25T00:50:57;14.02;;;3.80;;
17794;SDS011;9021;50.882;4.326;2023-04-25T00:53:24;16.30;;;4.32;;
17794;SDS011;9021;50.882;4.326;2023-04-25T00:55:51;14.15;;;4.28;;
17794;SDS011;9021;50.882;4.326;2023-04-25T00:58:18;13.88;;;4.03;;
17794;SDS011;9021;50.882;4.326;2023-04-25T01:00:45;18.17;;;4.63;;
17794;SDS011;9021;50.882;4.326;2023-04-25T01:03:12;16.30;;;4.15;;
17794;SDS011;9021;50.882;4.326;2023-04-25T01:05:40;14.38;;;3.75;;
17794;SDS011;9021;50.882;4.326;2023-04-25T01:08:06;17.80;;;3.80;;
17794;SDS011;9021;50.882;4.326;2023-04-25T01:12:58;14.30;;;4.07;;
17794;SDS011;9021;50.882;4.326;2023-04-25T01:15:24;18.45;;;4.00;;
17794;SDS011;9021;50.882;4.326;2023-04-25T01:17:49;13.52;;;4.35;;
17794;SDS011;9021;50.882;4.326;2023-04-25T01:20:15;15.57;;;4.38;;
17794;SDS011;9021;50.882;4.326;2023-04-25T01:25:07;14.25;;;3.75;;
17794;SDS011;9021;50.882;4.326;2023-04-25T01:27:35;15.38;;;3.90;;
17794;SDS011;9021;50.882;4.326;2023-04-25T01:30:01;16.45;;;3.55;;
17794;SDS011;9021;50.882;4.326;2023-04-25T01:32:28;17.17;;;4.20;;
17794;SDS011;9021;50.882;4.326;2023-04-25T01:34:56;11.00;;;3.80;;
17794;SDS011;9021;50.882;4.326;2023-04-25T01:37:22;15.05;;;4.10;;
17794;SDS011;9021;50.882;4.326;2023-04-25T01:39:48;13.32;;;3.80;;
17794;SDS011;9021;50.882;4.326;2023-04-25T01:42:15;17.63;;;4.22;;
17794;SDS011;9021;50.882;4.326;2023-04-25T01:44:41;12.35;;;3.88;;
17794;SDS011;9021;50.882;4.326;2023-04-25T01:47:07;17.75;;;4.30;;
17794;SDS011;9021;50.882;4.326;2023-04-25T01:49:33;12.55;;;3.97;;
17794;SDS011;9021;50.882;4.326;2023-04-25T01:51:59;13.75;;;3.88;;
17794;SDS011;9021;50.882;4.326;2023-04-25T01:54:24;17.92;;;3.80;;
17794;SDS011;9021;50.882;4.326;2023-04-25T01:56:50;21.60;;;4.35;;
17794;SDS011;9021;50.882;4.326;2023-04-25T01:59:18;19.63;;;4.38;;
17794;SDS011;9021;50.882;4.326;2023-04-25T02:01:45;15.30;;;4.22;;
17794;SDS011;9021;50.882;4.326;2023-04-25T02:04:10;20.73;;;3.65;;
17794;SDS011;9021;50.882;4.326;2023-04-25T02:06:36;13.98;;;3.88;;
17794;SDS011;9021;50.882;4.326;2023-04-25T02:09:02;15.68;;;3.97;;
17794;SDS011;9021;50.882;4.326;2023-04-25T02:11:28;15.13;;;4.10;;
17794;SDS011;9021;50.882;4.326;2023-04-25T02:13:53;12.75;;;3.90;;
17794;SDS011;9021;50.882;4.326;2023-04-25T02:18:45;17.45;;;4.47;;
17794;SDS011;9021;50.882;4.326;2023-04-25T02:21:11;18.27;;;4.78;;
17794;SDS011;9021;50.882;4.326;2023-04-25T02:23:37;17.42;;;4.60;;
17794;SDS011;9021;50.882;4.326;2023-04-25T02:26:03;13.90;;;4.28;;
17794;SDS011;9021;50.882;4.326;2023-04-25T02:30:55;17.17;;;4.13;;
17794;SDS011;9021;50.882;4.326;2023-04-25T02:33:21;16.70;;;4.70;;
17794;SDS011;9021;50.882;4.326;2023-04-25T02:35:47;12.32;;;3.72;;
17794;SDS011;9021;50.882;4.326;2023-04-25T02:38:12;16.40;;;3.92;;
17794;SDS011;9021;50.882;4.326;2023-04-25T02:40:38;15.48;;;4.47;;
17794;SDS011;9021;50.882;4.326;2023-04-25T02:43:05;13.35;;;4.47;;
17794;SDS011;9021;50.882;4.326;2023-04-25T02:45:32;16.30;;;4.65;;
17794;SDS011;9021;50.882;4.326;2023-04-25T02:47:57;18.90;;;4.97;;
17794;SDS011;9021;50.882;4.326;2023-04-25T02:50:23;18.65;;;4.88;;
17794;SDS011;9021;50.882;4.326;2023-04-25T02:52:49;14.48;;;5.00;;
17794;SDS011;9021;50.882;4.326;2023-04-25T02:55:15;17.92;;;5.05;;
17794;SDS011;9021;50.882;4.326;2023-04-25T02:57:41;18.38;;;4.63;;
17794;SDS011;9021;50.882;4.326;2023-04-25T03:00:07;13.75;;;4.35;;
17794;SDS011;9021;50.882;4.326;2023-04-25T03:04:58;16.67;;;4.25;;
17794;SDS011;9021;50.882;4.326;2023-04-25T03:09:50;14.57;;;4.20;;
17794;SDS011;9021;50.882;4.326;2023-04-25T03:12:16;16.92;;;4.20;;
17794;SDS011;9021;50.882;4.326;2023-04-25T03:14:42;16.85;;;4.47;;
17794;SDS011;9021;50.882;4.326;2023-04-25T03:17:07;15.27;;;3.85;;
17794;SDS011;9021;50.882;4.326;2023-04-25T03:19:33;14.68;;;4.38;;
17794;SDS011;9021;50.882;4.326;2023-04-25T03:21:59;20.23;;;4.68;;
17794;SDS011;9021;50.882;4.326;2023-04-25T03:24:25;15.57;;;4.55;;
17794;SDS011;9021;50.882;4.326;2023-04-25T03:26:52;16.42;;;4.40;;
17794;SDS011;9021;50.882;4.326;2023-04-25T03:29:18;18.98;;;4.57;;
17794;SDS011;9021;50.882;4.326;2023-04-25T03:31:43;21.67;;;4.65;;
17794;SDS011;9021;50.882;4.326;2023-04-25T03:34:10;12.65;;;4.95;;
17794;SDS011;9021;50.882;4.326;2023-04-25T03:36:36;16.35;;;4.55;;
17794;SDS011;9021;50.882;4.326;2023-04-25T03:39:02;18.10;;;4.53;;
17794;SDS011;9021;50.882;4.326;2023-04-25T03:41:27;19.27;;;4.18;;
17794;SDS011;9021;50.882;4.326;2023-04-25T03:43:54;17.75;;;4.13;;
17794;SDS011;9021;50.882;4.326;2023-04-25T03:46:20;23.05;;;4.32;;
17794;SDS011;9021;50.882;4.326;2023-04-25T03:48:45;21.90;;;4.22;;
17794;SDS011;9021;50.882;4.326;2023-04-25T03:53:37;15.35;;;3.65;;
17794;SDS011;9021;50.882;4.326;2023-04-25T03:56:03;16.85;;;3.90;;
17794;SDS011;9021;50.882;4.326;2023-04-25T03:58:29;12.55;;;4.03;;
17794;SDS011;9021;50.882;4.326;2023-04-25T04:00:54;13.63;;;3.90;;
17794;SDS011;9021;50.882;4.326;2023-04-25T04:03:20;18.48;;;4.32;;
17794;SDS011;9021;50.882;4.326;2023-04-25T04:05:46;15.55;;;3.47;;
17794;SDS011;9021;50.882;4.326;2023-04-25T04:08:12;13.57;;;3.90;;
17794;SDS011;9021;50.882;4.326;2023-04-25T04:10:38;11.43;;;3.15;;
17794;SDS011;9021;50.882;4.326;2023-04-25T04:13:03;10.50;;;3.15;;
17794;SDS011;9021;50.882;4.326;2023-04-25T04:15:29;11.90;;;3.20;;
17794;SDS011;9021;50.882;4.326;2023-04-25T04:17:57;16.88;;;3.85;;
17794;SDS011;9021;50.882;4.326;2023-04-25T04:20:27;19.52;;;3.58;;
17794;SDS011;9021;50.882;4.326;2023-04-25T04:22:54;16.45;;;3.83;;
17794;SDS011;9021;50.882;4.326;2023-04-25T04:25:20;14.20;;;3.72;;
17794;SDS011;9021;50.882;4.326;2023-04-25T04:27:46;9.52;;;3.13;;
17794;SDS011;9021;50.882;4.326;2023-04-25T04:30:12;12.82;;;3.47;;
17794;SDS011;9021;50.882;4.326;2023-04-25T04:35:04;13.48;;;3.45;;
17794;SDS011;9021;50.882;4.326;2023-04-25T04:37:31;10.27;;;3.17;;
17794;SDS011;9021;50.882;4.326;2023-04-25T04:39:58;15.52;;;3.63;;
17794;SDS011;9021;50.882;4.326;2023-04-25T04:42:24;14.20;;;3.78;;
17794;SDS011;9021;50.882;4.326;2023-04-25T04:44:50;15.85;;;3.70;;
17794;SDS011;9021;50.882;4.326;2023-04-25T04:47:17;9.00;;;3.22;;
17794;SDS011;9021;50.882;4.326;2023-04-25T04:49:42;13.50;;;4.25;;
17794;SDS011;9021;50.882;4.326;2023-04-25T04:52:09;14.27;;;3.92;;
17794;SDS011;9021;50.882;4.326;2023-04-25T04:54:35;12.23;;;3.72;;
17794;SDS011;9021;50.882;4.326;2023-04-25T04:57:01;20.70;;;3.55;;
17794;SDS011;9021;50.882;4.326;2023-04-25T04:59:27;12.63;;;3.67;;
17794;SDS011;9021;50.882;4.326;2023-04-25T05:01:53;17.30;;;3.83;;
17794;SDS011;9021;50.882;4.326;2023-04-25T05:06:44;14.68;;;3.90;;
17794;SDS011;9021;50.882;4.326;2023-04-25T05:09:10;9.88;;;3.00;;
17794;SDS011;9021;50.882;4.326;2023-04-25T05:11:36;12.45;;;4.10;;
17794;SDS011;9021;50.882;4.326;2023-04-25T05:14:02;13.98;;;3.60;;
17794;SDS011;9021;50.882;4.326;2023-04-25T05:16:28;15.23;;;3.33;;
17794;SDS011;9021;50.882;4.326;2023-04-25T05:18:54;9.82;;;2.78;;
17794;SDS011;9021;50.882;4.326;2023-04-25T05:21:19;7.60;;;2.63;;
17794;SDS011;9021;50.882;4.326;2023-04-25T05:23:45;14.25;;;3.33;;
17794;SDS011;9021;50.882;4.326;2023-04-25T05:26:11;9.00;;;3.35;;
17794;SDS011;9021;50.882;4.326;2023-04-25T05:28:39;9.60;;;3.47;;
17794;SDS011;9021;50.882;4.326;2023-04-25T05:31:06;12.40;;;3.60;;
17794;SDS011;9021;50.882;4.326;2023-04-25T05:33:35;17.42;;;3.65;;
17794;SDS011;9021;50.882;4.326;2023-04-25T05:38:26;18.10;;;3.38;;
17794;SDS011;9021;50.882;4.326;2023-04-25T05:40:52;16.83;;;4.03;;
17794;SDS011;9021;50.882;4.326;2023-04-25T05:43:18;22.00;;;3.88;;
17794;SDS011;9021;50.882;4.326;2023-04-25T05:45:43;14.00;;;4.13;;
17794;SDS011;9021;50.882;4.326;2023-04-25T05:48:12;18.80;;;4.10;;
17794;SDS011;9021;50.882;4.326;2023-04-25T05:50:38;13.10;;;3.92;;
17794;SDS011;9021;50.882;4.326;2023-04-25T05:53:04;16.17;;;3.90;;
17794;SDS011;9021;50.882;4.326;2023-04-25T05:55:30;16.30;;;3.78;;
17794;SDS011;9021;50.882;4.326;2023-04-25T05:57:56;17.70;;;3.10;;
17794;SDS011;9021;50.882;4.326;2023-04-25T06:00:22;12.43;;;3.53;;
17794;SDS011;9021;50.882;4.326;2023-04-25T06:02:48;13.43;;;3.20;;
17794;SDS011;9021;50.882;4.326;2023-04-25T06:07:40;15.10;;;3.95;;
17794;SDS011;9021;50.882;4.326;2023-04-25T06:10:06;10.30;;;2.97;;
17794;SDS011;9021;50.882;4.326;2023-04-25T06:12:33;14.85;;;3.95;;
17794;SDS011;9021;50.882;4.326;2023-04-25T06:14:59;11.93;;;3.47;;
17794;SDS011;9021;50.882;4.326;2023-04-25T06:17:25;17.05;;;3.50;;
17794;SDS011;9021;50.882;4.326;2023-04-25T06:19:51;10.10;;;3.20;;
17794;SDS011;9021;50.882;4.326;2023-04-25T06:22:17;15.95;;;3.58;;
17794;SDS011;9021;50.882;4.326;2023-04-25T06:24:43;8.23;;;2.85;;
17794;SDS011;9021;50.882;4.326;2023-04-25T06:27:10;10.82;;;3.35;;
17794;SDS011;9021;50.882;4.326;2023-04-25T06:29:36;14.55;;;3.30;;
17794;SDS011;9021;50.882;4.326;2023-04-25T06:32:02;11.35;;;2.92;;
17794;SDS011;9021;50.882;4.326;2023-04-25T06:34:28;17.40;;;3.45;;
17794;SDS011;9021;50.882;4.326;2023-04-25T06:36:53;23.98;;;3.92;;
17794;SDS011;9021;50.882;4.326;2023-04-25T06:39:19;11.00;;;2.92;;
17794;SDS011;9021;50.882;4.326;2023-04-25T06:41:48;15.15;;;3.50;;
17794;SDS011;9021;50.882;4.326;2023-04-25T06:44:13;11.88;;;4.30;;
17794;SDS011;9021;50.882;4.326;2023-04-25T06:46:40;11.90;;;3.45;;
17794;SDS011;9021;50.882;4.326;2023-04-25T06:49:06;13.40;;;3.28;;
17794;SDS011;9021;50.882;4.326;2023-04-25T06:51:31;17.88;;;3.47;;
17794;SDS011;9021;50.882;4.326;2023-04-25T06:53:57;14.55;;;3.15;;
17794;SDS011;9021;50.882;4.326;2023-04-25T06:56:23;12.43;;;2.90;;
17794;SDS011;9021;50.882;4.326;2023-04-25T06:58:49;11.45;;;3.45;;
17794;SDS011;9021;50.882;4.326;2023-04-25T07:01:15;15.18;;;2.83;;
17794;SDS011;9021;50.882;4.326;2023-04-25T07:03:41;18.30;;;3.45;;
17794;SDS011;9021;50.882;4.326;2023-04-25T07:08:32;10.13;;;2.65;;
17794;SDS011;9021;50.882;4.326;2023-04-25T07:10:58;12.35;;;2.92;;
17794;SDS011;9021;50.882;4.326;2023-04-25T07:13:24;15.32;;;2.67;;
17794;SDS011;9021;50.882;4.326;2023-04-25T07:15:49;25.17;;;4.43;;
17794;SDS011;9021;50.882;4.326;2023-04-25T07:18:15;8.98;;;2.70;;
17794;SDS011;9021;50.882;4.326;2023-04-25T07:20:41;10.05;;;2.45;;
17794;SDS011;9021;50.882;4.326;2023-04-25T07:23:07;11.60;;;2.60;;
17794;SDS011;9021;50.882;4.326;2023-04-25T07:25:32;11.55;;;2.40;;
17794;SDS011;9021;50.882;4.326;2023-04-25T07:27:58;11.73;;;3.28;;
17794;SDS011;9021;50.882;4.326;2023-04-25T07:30:24;7.03;;;2.30;;
17794;SDS011;9021;50.882;4.326;2023-04-25T07:32:49;12.68;;;3.00;;
17794;SDS011;9021;50.882;4.326;2023-04-25T07:35:16;9.45;;;2.10;;
17794;SDS011;9021;50.882;4.326;2023-04-25T07:37:42;14.55;;;2.72;;
17794;SDS011;9021;50.882;4.326;2023-04-25T07:40:08;8.18;;;2.38;;
17794;SDS011;9021;50.882;4.326;2023-04-25T07:42:34;11.52;;;2.38;;
17794;SDS011;9021;50.882;4.326;2023-04-25T07:45:00;10.35;;;1.95;;
17794;SDS011;9021;50.882;4.326;2023-04-25T07:49:52;17.33;;;2.28;;
17794;SDS011;9021;50.882;4.326;2023-04-25T07:54:44;9.50;;;2.50;;
17794;SDS011;9021;50.882;4.326;2023-04-25T07:59:35;8.07;;;2.28;;
17794;SDS011;9021;50.882;4.326;2023-04-25T08:02:01;8.75;;;1.90;;
17794;SDS011;9021;50.882;4.326;2023-04-25T08:04:27;9.70;;;2.25;;
17794;SDS011;9021;50.882;4.326;2023-04-25T08:09:19;12.93;;;2.03;;
17794;SDS011;9021;50.882;4.326;2023-04-25T08:11:45;6.95;;;1.95;;
17794;SDS011;9021;50.882;4.326;2023-04-25T08:14:12;10.65;;;2.03;;
17794;SDS011;9021;50.882;4.326;2023-04-25T08:16:38;9.80;;;2.30;;
17794;SDS011;9021;50.882;4.326;2023-04-25T08:21:30;9.50;;;2.20;;
17794;SDS011;9021;50.882;4.326;2023-04-25T08:23:56;7.88;;;2.05;;
17794;SDS011;9021;50.882;4.326;2023-04-25T08:26:23;6.25;;;1.85;;
17794;SDS011;9021;50.882;4.326;2023-04-25T08:28:49;9.85;;;2.50;;
17794;SDS011;9021;50.882;4.326;2023-04-25T08:31:15;9.15;;;1.77;;
17794;SDS011;9021;50.882;4.326;2023-04-25T08:33:41;12.05;;;3.28;;
17794;SDS011;9021;50.882;4.326;2023-04-25T08:36:07;7.85;;;2.53;;
17794;SDS011;9021;50.882;4.326;2023-04-25T08:38:33;7.70;;;1.88;;
17794;SDS011;9021;50.882;4.326;2023-04-25T08:40:59;8.15;;;2.13;;
17794;SDS011;9021;50.882;4.326;2023-04-25T08:43:26;9.32;;;1.85;;
17794;SDS011;9021;50.882;4.326;2023-04-25T08:45:54;6.82;;;2.67;;
17794;SDS011;9021;50.882;4.326;2023-04-25T08:48:25;8.18;;;2.00;;
17794;SDS011;9021;50.882;4.326;2023-04-25T08:50:53;7.72;;;1.73;;
17794;SDS011;9021;50.882;4.326;2023-04-25T08:53:21;6.40;;;2.08;;
17794;SDS011;9021;50.882;4.326;2023-04-25T08:55:50;10.90;;;2.00;;
17794;SDS011;9021;50.882;4.326;2023-04-25T08:58:18;6.85;;;2.00;;
17794;SDS011;9021;50.882;4.326;2023-04-25T09:03:11;5.95;;;1.90;;
17794;SDS011;9021;50.882;4.326;2023-04-25T09:05:36;4.63;;;1.50;;
17794;SDS011;9021;50.882;4.326;2023-04-25T09:08:02;7.60;;;1.65;;
17794;SDS011;9021;50.882;4.326;2023-04-25T09:10:28;5.30;;;1.38;;
17794;SDS011;9021;50.882;4.326;2023-04-25T09:13:10;12.10;;;1.67;;
17794;SDS011;9021;50.882;4.326;2023-04-25T09:16:11;8.88;;;1.75;;
17794;SDS011;9021;50.882;4.326;2023-04-25T09:18:31;11.35;;;1.80;;
17794;SDS011;9021;50.882;4.326;2023-04-25T09:21:05;8.88;;;1.63;;
17794;SDS011;9021;50.882;4.326;2023-04-25T09:26:07;9.20;;;1.42;;
17794;SDS011;9021;50.882;4.326;2023-04-25T09:28:33;8.60;;;1.73;;
17794;SDS011;9021;50.882;4.326;2023-04-25T09:33:30;6.15;;;1.23;;
17794;SDS011;9021;50.882;4.326;2023-04-25T09:36:07;7.15;;;1.42;;
17794;SDS011;9021;50.882;4.326;2023-04-25T09:38:43;5.80;;;1.73;;
17794;SDS011;9021;50.882;4.326;2023-04-25T09:41:10;8.23;;;1.70;;
17794;SDS011;9021;50.882;4.326;2023-04-25T09:43:36;4.97;;;1.42;;
17794;SDS011;9021;50.882;4.326;2023-04-25T09:46:04;6.60;;;1.38;;
17794;SDS011;9021;50.882;4.326;2023-04-25T09:48:36;6.00;;;1.38;;
17794;SDS011;9021;50.882;4.326;2023-04-25T09:53:28;6.95;;;1.00;;
17794;SDS011;9021;50.882;4.326;2023-04-25T09:55:55;6.40;;;1.10;;
17794;SDS011;9021;50.882;4.326;2023-04-25T09:58:21;2.92;;;0.93;;
17794;SDS011;9021;50.882;4.326;2023-04-25T10:00:52;3.50;;;0.82;;
17794;SDS011;9021;50.882;4.326;2023-04-25T10:03:20;2.88;;;0.80;;
17794;SDS011;9021;50.882;4.326;2023-04-25T10:05:50;5.78;;;0.80;;
17794;SDS011;9021;50.882;4.326;2023-04-25T10:08:17;3.55;;;0.90;;
17794;SDS011;9021;50.882;4.326;2023-04-25T10:10:43;4.65;;;0.80;;
17794;SDS011;9021;50.882;4.326;2023-04-25T10:13:10;4.25;;;1.08;;
17794;SDS011;9021;50.882;4.326;2023-04-25T10:15:39;5.22;;;0.98;;
17794;SDS011;9021;50.882;4.326;2023-04-25T10:18:06;4.80;;;0.80;;
17794;SDS011;9021;50.882;4.326;2023-04-25T10:20:32;6.28;;;0.95;;
17794;SDS011;9021;50.882;4.326;2023-04-25T10:23:01;7.32;;;1.50;;
17794;SDS011;9021;50.882;4.326;2023-04-25T10:25:35;4.05;;;0.95;;
17794;SDS011;9021;50.882;4.326;2023-04-25T10:28:03;4.68;;;1.10;;
17794;SDS011;9021;50.882;4.326;2023-04-25T10:30:28;6.13;;;1.00;;
17794;SDS011;9021;50.882;4.326;2023-04-25T10:32:55;6.03;;;0.90;;
17794;SDS011;9021;50.882;4.326;2023-04-25T10:38:09;3.53;;;1.00;;
17794;SDS011;9021;50.882;4.326;2023-04-25T10:40:37;6.40;;;1.08;;
17794;SDS011;9021;50.882;4.326;2023-04-25T10:45:59;8.10;;;1.58;;
17794;SDS011;9021;50.882;4.326;2023-04-25T10:48:26;10.02;;;1.48;;
17794;SDS011;9021;50.882;4.326;2023-04-25T10:51:11;7.47;;;1.17;;
17794;SDS011;9021;50.882;4.326;2023-04-25T10:53:41;7.35;;;1.33;;
17794;SDS011;9021;50.882;4.326;2023-04-25T10:56:18;8.82;;;1.77;;
17794;SDS011;9021;50.882;4.326;2023-04-25T10:58:50;7.10;;;1.30;;
17794;SDS011;9021;50.882;4.326;2023-04-25T11:01:20;8.48;;;1.52;;
17794;SDS011;9021;50.882;4.326;2023-04-25T11:03:46;7.07;;;1.30;;
17794;SDS011;9021;50.882;4.326;2023-04-25T11:11:36;5.00;;;0.77;;
17794;SDS011;9021;50.882;4.326;2023-04-25T11:14:02;6.18;;;1.17;;
17794;SDS011;9021;50.882;4.326;2023-04-25T11:16:27;4.35;;;1.20;;
17794;SDS011;9021;50.882;4.326;2023-04-25T11:18:53;4.78;;;0.95;;
17794;SDS011;9021;50.882;4.326;2023-04-25T11:21:22;7.30;;;1.05;;
17794;SDS011;9021;50.882;4.326;2023-04-25T11:23:48;5.93;;;1.60;;
17794;SDS011;9021;50.882;4.326;2023-04-25T11:26:14;6.18;;;1.35;;
17794;SDS011;9021;50.882;4.326;2023-04-25T11:28:40;3.55;;;1.13;;
17794;SDS011;9021;50.882;4.326;2023-04-25T11:31:09;5.15;;;1.20;;
17794;SDS011;9021;50.882;4.326;2023-04-25T11:33:35;6.47;;;1.30;;
17794;SDS011;9021;50.882;4.326;2023-04-25T11:36:01;5.63;;;1.02;;
17794;SDS011;9021;50.882;4.326;2023-04-25T11:40:53;5.63;;;1.15;;
17794;SDS011;9021;50.882;4.326;2023-04-25T11:43:21;5.40;;;1.00;;
17794;SDS011;9021;50.882;4.326;2023-04-25T11:45:50;6.03;;;1.00;;
17794;SDS011;9021;50.882;4.326;2023-04-25T11:48:17;2.63;;;0.85;;
17794;SDS011;9021;50.882;4.326;2023-04-25T11:50:44;3.90;;;0.90;;
17794;SDS011;9021;50.882;4.326;2023-04-25T11:53:10;4.35;;;1.00;;
17794;SDS011;9021;50.882;4.326;2023-04-25T11:55:36;4.40;;;0.75;;
17794;SDS011;9021;50.882;4.326;2023-04-25T11:58:02;5.15;;;0.90;;
17794;SDS011;9021;50.882;4.326;2023-04-25T12:00:29;4.95;;;0.98;;
17794;SDS011;9021;50.882;4.326;2023-04-25T12:05:26;4.03;;;0.93;;
17794;SDS011;9021;50.882;4.326;2023-04-25T12:07:54;4.45;;;0.85;;
17794;SDS011;9021;50.882;4.326;2023-04-25T12:10:19;3.65;;;0.73;;
17794;SDS011;9021;50.882;4.326;2023-04-25T12:12:46;13.55;;;1.80;;
17794;SDS011;9021;50.882;4.326;2023-04-25T12:17:42;4.57;;;0.85;;
17794;SDS011;9021;50.882;4.326;2023-04-25T12:20:14;4.60;;;0.88;;
17794;SDS011;9021;50.882;4.326;2023-04-25T12:22:42;2.00;;;0.77;;
17794;SDS011;9021;50.882;4.326;2023-04-25T12:25:13;3.00;;;0.68;;
17794;SDS011;9021;50.882;4.326;2023-04-25T12:28:11;4.43;;;0.82;;
17794;SDS011;9021;50.882;4.326;2023-04-25T12:30:57;1.67;;;0.60;;
17794;SDS011;9021;50.882;4.326;2023-04-25T12:33:30;2.35;;;0.63;;
17794;SDS011;9021;50.882;4.326;2023-04-25T12:36:00;3.67;;;0.85;;
17794;SDS011;9021;50.882;4.326;2023-04-25T12:38:40;3.30;;;0.73;;
17794;SDS011;9021;50.882;4.326;2023-04-25T12:41:07;5.05;;;0.80;;
17794;SDS011;9021;50.882;4.326;2023-04-25T12:43:34;3.05;;;1.20;;
17794;SDS011;9021;50.882;4.326;2023-04-25T12:45:59;4.22;;;0.77;;
17794;SDS011;9021;50.882;4.326;2023-04-25T12:48:25;3.83;;;0.75;;
17794;SDS011;9021;50.882;4.326;2023-04-25T12:50:51;4.43;;;0.77;;
17794;SDS011;9021;50.882;4.326;2023-04-25T12:55:44;3.67;;;0.95;;
17794;SDS011;9021;50.882;4.326;2023-04-25T12:58:16;3.20;;;0.90;;
17794;SDS011;9021;50.882;4.326;2023-04-25T13:00:44;4.43;;;0.93;;
17794;SDS011;9021;50.882;4.326;2023-04-25T13:03:10;6.22;;;1.00;;
17794;SDS011;9021;50.882;4.326;2023-04-25T13:05:37;3.35;;;0.85;;
17794;SDS011;9021;50.882;4.326;2023-04-25T13:08:03;3.40;;;0.85;;
17794;SDS011;9021;50.882;4.326;2023-04-25T13:10:29;3.45;;;0.70;;
17794;SDS011;9021;50.882;4.326;2023-04-25T13:15:21;3.47;;;0.70;;
17794;SDS011;9021;50.882;4.326;2023-04-25T13:17:47;3.45;;;0.75;;
17794;SDS011;9021;50.882;4.326;2023-04-25T13:20:13;3.63;;;0.77;;
17794;SDS011;9021;50.882;4.326;2023-04-25T13:22:40;6.32;;;0.88;;
17794;SDS011;9021;50.882;4.326;2023-04-25T13:25:07;2.00;;;0.82;;
17794;SDS011;9021;50.882;4.326;2023-04-25T13:27:33;6.20;;;0.63;;
17794;SDS011;9021;50.882;4.326;2023-04-25T13:30:00;6.07;;;1.17;;
17794;SDS011;9021;50.882;4.326;2023-04-25T13:32:29;5.28;;;0.63;;
17794;SDS011;9021;50.882;4.326;2023-04-25T13:34:55;2.80;;;0.88;;
17794;SDS011;9021;50.882;4.326;2023-04-25T13:37:21;5.22;;;1.00;;
17794;SDS011;9021;50.882;4.326;2023-04-25T13:39:49;1.83;;;0.60;;
17794;SDS011;9021;50.882;4.326;2023-04-25T13:44:40;2.38;;;0.75;;
17794;SDS011;9021;50.882;4.326;2023-04-25T13:47:06;3.45;;;0.90;;
17794;SDS011;9021;50.882;4.326;2023-04-25T13:49:32;4.50;;;0.90;;
17794;SDS011;9021;50.882;4.326;2023-04-25T13:51:58;3.67;;;0.80;;
17794;SDS011;9021;50.882;4.326;2023-04-25T13:54:23;4.38;;;1.05;;
17794;SDS011;9021;50.882;4.326;2023-04-25T13:56:49;3.97;;;0.80;;
17794;SDS011;9021;50.882;4.326;2023-04-25T13:59:16;3.95;;;1.10;;
17794;SDS011;9021;50.882;4.326;2023-04-25T14:01:42;5.32;;;1.08;;
17794;SDS011;9021;50.882;4.326;2023-04-25T14:04:08;10.48;;;1.40;;
17794;SDS011;9021;50.882;4.326;2023-04-25T14:06:33;4.35;;;0.70;;
17794;SDS011;9021;50.882;4.326;2023-04-25T14:09:00;6.07;;;1.05;;
17794;SDS011;9021;50.882;4.326;2023-04-25T14:11:26;4.40;;;1.15;;
17794;SDS011;9021;50.882;4.326;2023-04-25T14:13:51;2.65;;;0.70;;
17794;SDS011;9021;50.882;4.326;2023-04-25T14:16:17;5.88;;;0.90;;
17794;SDS011;9021;50.882;4.326;2023-04-25T14:18:43;5.95;;;1.02;;
17794;SDS011;9021;50.882;4.326;2023-04-25T14:21:09;3.92;;;0.90;;
17794;SDS011;9021;50.882;4.326;2023-04-25T14:23:35;1.42;;;0.60;;
17794;SDS011;9021;50.882;4.326;2023-04-25T14:26:01;6.47;;;1.00;;
17794;SDS011;9021;50.882;4.326;2023-04-25T14:28:27;4.60;;;0.73;;
17794;SDS011;9021;50.882;4.326;2023-04-25T14:30:53;2.67;;;0.50;;
17794;SDS011;9021;50.882;4.326;2023-04-25T14:33:18;6.90;;;1.00;;
17794;SDS011;9021;50.882;4.326;2023-04-25T14:35:44;4.43;;;1.13;;
17794;SDS011;9021;50.882;4.326;2023-04-25T14:40:36;5.03;;;0.93;;
17794;SDS011;9021;50.882;4.326;2023-04-25T14:43:03;3.22;;;0.80;;
17794;SDS011;9021;50.882;4.326;2023-04-25T14:45:29;3.33;;;0.63;;
17794;SDS011;9021;50.882;4.326;2023-04-25T14:47:56;3.83;;;0.73;;
17794;SDS011;9021;50.882;4.326;2023-04-25T14:50:22;4.32;;;0.88;;
17794;SDS011;9021;50.882;4.326;2023-04-25T14:52:48;5.22;;;0.90;;
17794;SDS011;9021;50.882;4.326;2023-04-25T14:55:14;2.70;;;0.80;;
17794;SDS011;9021;50.882;4.326;2023-04-25T14:57:39;4.88;;;1.20;;
17794;SDS011;9021;50.882;4.326;2023-04-25T15:00:05;3.88;;;1.05;;
17794;SDS011;9021;50.882;4.326;2023-04-25T15:02:34;4.85;;;0.75;;
17794;SDS011;9021;50.882;4.326;2023-04-25T15:05:00;4.50;;;0.90;;
17794;SDS011;9021;50.882;4.326;2023-04-25T15:07:26;2.70;;;0.82;;
17794;SDS011;9021;50.882;4.326;2023-04-25T15:09:52;6.15;;;0.85;;
17794;SDS011;9021;50.882;4.326;2023-04-25T15:14:45;1.92;;;0.75;;
17794;SDS011;9021;50.882;4.326;2023-04-25T15:19:39;5.30;;;0.90;;
17794;SDS011;9021;50.882;4.326;2023-04-25T15:24:31;3.45;;;0.85;;
17794;SDS011;9021;50.882;4.326;2023-04-25T15:29:23;4.78;;;0.80;;
17794;SDS011;9021;50.882;4.326;2023-04-25T15:31:49;3.78;;;0.80;;
17794;SDS011;9021;50.882;4.326;2023-04-25T15:34:15;6.20;;;1.30;;
17794;SDS011;9021;50.882;4.326;2023-04-25T15:36:41;4.53;;;1.00;;
17794;SDS011;9021;50.882;4.326;2023-04-25T15:39:07;3.90;;;0.82;;
17794;SDS011;9021;50.882;4.326;2023-04-25T15:41:32;5.78;;;1.10;;
17794;SDS011;9021;50.882;4.326;2023-04-25T15:43:58;2.50;;;0.80;;
17794;SDS011;9021;50.882;4.326;2023-04-25T15:46:25;5.38;;;1.00;;
17794;SDS011;9021;50.882;4.326;2023-04-25T15:48:51;6.95;;;1.85;;
17794;SDS011;9021;50.882;4.326;2023-04-25T15:51:17;6.10;;;1.20;;
17794;SDS011;9021;50.882;4.326;2023-04-25T15:53:42;3.40;;;0.80;;
17794;SDS011;9021;50.882;4.326;2023-04-25T15:56:08;5.35;;;0.90;;
17794;SDS011;9021;50.882;4.326;2023-04-25T15:58:34;2.95;;;0.57;;
17794;SDS011;9021;50.882;4.326;2023-04-25T16:01:00;3.92;;;0.95;;
17794;SDS011;9021;50.882;4.326;2023-04-25T16:03:26;2.03;;;0.55;;
17794;SDS011;9021;50.882;4.326;2023-04-25T16:05:52;2.00;;;0.63;;
17794;SDS011;9021;50.882;4.326;2023-04-25T16:08:17;4.95;;;0.95;;
17794;SDS011;9021;50.882;4.326;2023-04-25T16:10:43;5.55;;;0.80;;
17794;SDS011;9021;50.882;4.326;2023-04-25T16:13:09;3.08;;;0.90;;
17794;SDS011;9021;50.882;4.326;2023-04-25T16:18:01;6.28;;;1.33;;
17794;SDS011;9021;50.882;4.326;2023-04-25T16:20:27;3.65;;;1.00;;
17794;SDS011;9021;50.882;4.326;2023-04-25T16:22:52;2.53;;;0.52;;
17794;SDS011;9021;50.882;4.326;2023-04-25T16:25:18;4.55;;;0.85;;